Latest Weather Observations for Latrobe Valley

IDV60801

Issued at 4:02 pm EDT Friday 27 March 2015 (issued every 30 minutes, with the page automatically refreshed every 10 minutes)

About weather observations | Map of weather stations | Latest weather observations for VIC | Other Formats
Station Details ID: 085280 Name: LATROBE VALLEY AIRPORT Lat: -38.21 Lon: 146.47 Height: 55.7 m
Data from the previous 72 hours. | See also: Recent months at Latrobe Valley
Date/Time
EDT
Temp
°C
App
Temp
°C
Dew
Point
Rel
Hum
%
Delta-T
°C
Wind Press
QNH
hPa
Press
MSL
hPa
Rain
since 9 am
mm
Dir
 
Spd
km/h
Gust
km/h
Spd
kts
Gust
kts
27/04:00pm 14.0 8.6 12.7 92 0.7 WNW 33 46 18 25 1020.5 1020.4 1.0
27/03:57pm 14.0 8.6 12.7 92 0.7 WNW 33 46 18 25 1020.5 1020.4 1.0
27/03:41pm 14.0 8.4 13.2 95 0.4 W 35 50 19 27 1020.6 1020.5 1.0
27/03:34pm 14.2 8.4 12.6 90 0.9 W 35 46 19 25 1020.5 1020.4 1.0
27/03:30pm 15.2 9.7 13.7 91 0.8 W 35 52 19 28 1020.5 1020.4 1.0
27/03:23pm 14.4 8.9 12.4 88 1.1 W 33 52 18 28 1020.5 1020.4 1.0
27/03:19pm 14.8 9.4 12.7 87 1.2 W 33 44 18 24 1020.5 1020.4 1.0
27/03:03pm 14.4 9.1 12.6 89 1.0 W 32 43 17 23 1020.6 1020.5 1.0
27/03:00pm 14.5 9.7 12.9 90 0.9 W 30 43 16 23 1020.7 1020.6 1.0
27/02:46pm 14.1 9.0 13.1 94 0.6 W 32 46 17 25 1020.7 1020.6 1.0
27/02:43pm 14.3 9.1 13.3 94 0.6 W 33 46 18 25 1020.7 1020.6 1.0
27/02:30pm 14.8 10.0 13.0 89 1.0 W 30 43 16 23 1020.5 1020.4 1.0
27/02:00pm 14.6 9.0 11.6 82 1.6 W 32 46 17 25 1020.4 1020.3 1.0
27/01:36pm 13.8 8.6 12.9 94 0.5 W 32 50 17 27 1020.7 1020.6 1.0
27/01:33pm 13.7 9.0 13.2 97 0.3 W 30 39 16 21 1020.7 1020.6 1.0
27/01:30pm 13.8 9.2 13.6 99 0.1 W 30 39 16 21 1020.7 1020.6 1.0
27/01:18pm 13.5 9.3 13.5 100 0.0 W 28 35 15 19 1020.6 1020.5 1.0
27/01:00pm 13.2 8.9 13.2 100 0.0 W 28 37 15 20 1020.7 1020.6 1.0
27/12:59pm 13.2 8.9 13.2 100 0.0 W 28 37 15 20 1020.6 1020.5 0.8
27/12:37pm 13.1 7.0 12.9 99 0.1 WNW 37 50 20 27 1020.2 1020.1 0.8
27/12:30pm 13.5 7.8 13.0 97 0.3 WNW 35 48 19 26 1020.0 1019.9 0.8
27/12:25pm 14.0 8.9 13.8 99 0.1 WNW 33 43 18 23 1020.0 1019.9 0.8
27/12:04pm 12.8 7.3 12.6 99 0.1 WNW 33 44 18 24 1020.1 1020.0 0.6
27/12:00pm 13.2 7.5 13.0 99 0.1 WNW 35 44 19 24 1020.0 1019.9 0.6
27/11:42am 12.9 7.5 12.7 99 0.1 W 33 52 18 28 1020.0 1019.9 0.6
27/11:37am 13.0 8.2 13.0 100 0.0 W 30 41 16 22 1020.0 1019.9 0.6
27/11:30am 13.1 8.4 13.1 100 0.0 W 30 46 16 25 1020.0 1019.9 0.6
27/11:10am 12.7 6.8 12.5 99 0.1 WNW 35 54 19 29 1019.9 1019.8 0.2
27/11:09am 12.8 6.6 12.6 99 0.1 WNW 37 54 20 29 1019.9 1019.8 0.2
27/11:00am 12.9 6.2 12.3 96 0.3 WNW 39 54 21 29 1019.7 1019.6 0.2
27/10:30am 13.1 6.5 12.6 97 0.3 WNW 39 52 21 28 1019.5 1019.4 0.2
27/10:00am 12.8 7.0 12.6 99 0.1 WNW 35 50 19 27 1019.4 1019.3 0.2
27/09:33am 12.6 7.1 12.4 99 0.1 WNW 33 52 18 28 1019.0 1018.9 0.2
27/09:30am 12.4 6.4 12.2 99 0.1 WNW 35 52 19 28 1019.0 1018.9 0.2
27/09:27am 12.2 6.2 12.0 99 0.1 WNW 35 52 19 28 1018.9 1018.8 0.2
27/09:01am 11.9 6.2 11.9 100 0.0 WNW 33 48 18 26 1018.4 1018.3 0.0
27/09:00am 11.9 6.4 11.9 100 0.0 WNW 32 44 17 24 1018.4 1018.3 12.0
27/08:39am 11.9 6.8 11.9 100 0.0 W 30 39 16 21 1018.5 1018.4 11.6
27/08:30am 11.9 6.4 11.7 99 0.1 W 32 39 17 21 1018.4 1018.3 11.4
27/08:23am 11.9 6.7 11.7 99 0.1 W 30 39 16 21 1018.3 1018.2 11.0
27/08:00am 11.9 6.7 11.6 98 0.2 W 30 44 16 24 1017.9 1017.8 10.6
27/07:30am 11.8 5.6 11.5 98 0.2 W 35 46 19 25 1017.6 1017.5 10.4
27/07:28am 11.8 5.6 11.5 98 0.2 W 35 46 19 25 1017.6 1017.5 10.4
27/07:11am 11.7 5.9 11.5 99 0.1 W 33 43 18 23 1017.3 1017.2 10.2
27/07:00am 11.7 5.5 11.4 98 0.2 W 35 50 19 27 1017.2 1017.1 9.8
27/06:55am 11.7 5.1 11.5 99 0.1 W 37 52 20 28 1017.2 1017.1 9.6
27/06:46am 11.7 6.1 11.5 99 0.1 WNW 32 52 17 28 1017.1 1017.0 9.6
27/06:30am 11.5 6.6 11.2 98 0.2 W 28 39 15 21 1017.0 1016.9 9.4
27/06:00am 11.5 5.7 10.9 96 0.3 WNW 32 44 17 24 1016.5 1016.4 9.4
27/05:30am 12.0 6.1 11.2 95 0.4 WNW 33 46 18 25 1016.5 1016.4 9.4
27/05:00am 12.0 7.2 11.8 99 0.1 WNW 28 39 15 21 1016.5 1016.4 9.4
27/04:34am 11.7 8.0 11.5 99 0.1 W 22 32 12 17 1016.4 1016.3 9.4
27/04:30am 11.6 7.9 11.6 100 0.0 W 22 33 12 18 1016.3 1016.2 9.4
27/04:17am 11.9 7.1 11.7 99 0.1 WNW 28 39 15 21 1016.3 1016.2 9.4
27/04:00am 12.0 7.2 11.5 97 0.3 WNW 28 37 15 20 1016.2 1016.1 8.6
27/03:38am 11.8 6.2 11.6 99 0.1 WNW 32 41 17 22 1016.1 1016.0 8.6
27/03:30am 11.7 6.1 11.5 99 0.1 WNW 32 43 17 23 1016.1 1016.0 8.6
27/03:00am 11.6 5.9 11.0 96 0.3 WNW 32 48 17 26 1015.7 1015.5 8.2
27/02:52am 11.8 5.8 10.7 93 0.6 WNW 33 48 18 26 1015.6 1015.4 8.0
27/02:34am 11.7 5.9 10.8 94 0.5 WNW 32 44 17 24 1015.9 1015.8 7.4
27/02:30am 11.9 6.0 10.6 92 0.7 WNW 32 44 17 24 1015.7 1015.5 7.2
27/02:09am 11.6 7.5 11.3 98 0.2 WNW 24 32 13 17 1015.8 1015.6 7.0
27/02:00am 11.6 7.1 11.3 98 0.2 WNW 26 35 14 19 1016.0 1015.9 6.8
27/01:40am 11.6 6.6 11.1 97 0.3 WNW 28 37 15 20 1016.0 1015.9 6.2
27/01:30am 11.8 6.8 10.9 94 0.5 WNW 28 39 15 21 1016.0 1015.9 6.2
27/01:26am 11.7 7.1 10.9 95 0.4 WNW 26 37 14 20 1016.1 1016.0 6.2
27/01:15am 11.4 8.2 11.2 99 0.1 W 19 28 10 15 1016.1 1016.0 6.0
27/01:07am 11.2 8.0 11.2 100 0.0 W 19 22 10 12 1016.2 1016.1 5.6
27/01:06am 11.2 8.0 11.2 100 0.0 W 19 22 10 12 1016.2 1016.1 5.6
27/01:00am 11.2 7.7 11.0 99 0.1 WSW 20 28 11 15 1016.1 1016.0 5.4
27/12:52am 11.3 7.5 11.1 99 0.1 W 22 32 12 17 1016.3 1016.2 5.0
27/12:51am 11.3 7.5 11.1 99 0.1 W 22 32 12 17 1016.2 1016.1 5.0
27/12:41am 11.2 7.0 11.0 99 0.1 WSW 24 32 13 17 1016.3 1016.2 4.8
27/12:30am 11.0 7.1 10.8 99 0.1 SW 22 30 12 16 1016.3 1016.2 4.0
27/12:27am 11.1 7.2 10.9 99 0.1 WSW 22 30 12 16 1016.4 1016.3 3.8
27/12:00am 11.2 6.8 10.3 94 0.5 WNW 24 33 13 18 1016.0 1015.9 2.6
 
Date/Time
EDT
Temp
°C
App
Temp
°C
Dew
Point
Rel
Hum
%
Delta-T
°C
Wind Press
QNH
hPa
Press
MSL
hPa
Rain
since 9 am
mm
Dir
 
Spd
km/h
Gust
km/h
Spd
kts
Gust
kts
26/11:30pm 11.3 6.5 10.2 93 0.6 WNW 26 37 14 20 1016.0 1015.9 2.0
26/11:00pm 11.1 6.9 9.7 91 0.7 WNW 22 35 12 19 1016.1 1016.0 1.6
26/10:51pm 11.1 6.9 9.9 92 0.6 WNW 22 32 12 17 1016.2 1016.1 1.6
26/10:34pm 11.0 6.8 9.9 93 0.6 WNW 22 33 12 18 1016.3 1016.2 1.4
26/10:30pm 11.0 7.2 9.8 92 0.6 WNW 20 28 11 15 1016.3 1016.2 1.4
26/10:00pm 10.9 7.0 9.5 91 0.7 WSW 20 28 11 15 1016.5 1016.4 1.0
26/09:30pm 12.0 6.9 7.5 74 2.2 WNW 24 39 13 21 1015.9 1015.8 0.4
26/09:00pm 11.9 7.4 6.8 71 2.4 NW 20 28 11 15 1015.9 1015.8 0.4
26/08:30pm 12.2 7.6 6.5 68 2.7 NW 20 30 11 16 1016.0 1015.9 0.0
26/08:00pm 11.4 6.5 7.1 75 2.1 WNW 22 33 12 18 1016.1 1016.0 0.0
26/07:30pm 12.2 6.8 6.3 67 2.8 WNW 24 32 13 17 1016.0 1015.9 0.0
26/07:00pm 13.1 7.1 5.3 59 3.6 W 26 39 14 21 1015.8 1015.6 0.0
26/06:30pm 14.1 5.9 4.7 53 4.4 W 37 52 20 28 1015.7 1015.5 0.0
26/06:00pm 17.0 9.0 0.6 33 7.2 WNW 32 52 17 28 1014.5 1014.3 0.0
26/05:30pm 17.4 9.4 0.6 32 7.4 WNW 32 50 17 27 1014.2 1014.0 0.0
26/05:18pm 18.0 10.5 1.1 32 7.5 WNW 30 50 16 27 1014.3 1014.1 0.0
26/05:00pm 17.7 9.6 0.8 32 7.5 NW 33 46 18 25 1014.3 1014.1 0.0
26/04:30pm 17.7 9.9 1.7 34 7.2 WNW 32 43 17 23 1014.6 1014.4 0.0
26/04:03pm 19.2 11.6 2.6 33 7.7 WNW 32 50 17 27 1014.8 1014.6 0.0
26/04:00pm 18.3 10.0 2.2 34 7.3 WNW 35 50 19 27 1014.9 1014.7 0.0
26/03:37pm 16.8 7.5 0.9 34 7.0 WNW 39 59 21 32 1015.2 1015.0 0.0
26/03:30pm 18.5 9.4 1.9 33 7.5 WNW 39 50 21 27 1015.2 1015.0 0.0
26/03:11pm 18.2 9.5 1.7 33 7.4 WNW 37 63 20 34 1015.4 1015.2 0.0
26/03:00pm 18.6 10.3 2.0 33 7.6 WNW 35 52 19 28 1015.6 1015.4 0.0
26/02:52pm 18.2 10.4 2.9 36 7.1 WNW 33 52 18 28 1015.7 1015.5 0.0
26/02:30pm 18.3 10.1 2.6 35 7.2 WNW 35 52 19 28 1015.9 1015.8 0.0
26/02:25pm 16.7 8.9 1.6 36 6.7 WNW 32 52 17 28 1015.9 1015.8 0.0
26/02:00pm 17.5 9.5 1.5 34 7.1 WNW 33 48 18 26 1016.0 1015.9 0.0
26/01:33pm 17.2 9.6 3.1 39 6.5 NW 32 50 17 27 1016.3 1016.2 0.0
26/01:30pm 17.0 9.2 3.0 39 6.4 NW 33 50 18 27 1016.4 1016.3 0.0
26/01:00pm 17.4 10.3 3.7 40 6.4 WNW 30 43 16 23 1016.6 1016.5 0.0
26/12:30pm 16.6 9.7 4.6 45 5.7 WNW 30 39 16 21 1016.9 1016.8 0.0
26/12:13pm 15.9 8.9 4.0 45 5.5 W 30 48 16 26 1016.9 1016.8 0.0
26/12:00pm 15.4 8.2 4.8 49 5.0 WNW 32 44 17 24 1017.1 1017.0 0.0
26/11:30am 13.9 6.5 4.2 52 4.5 WNW 32 41 17 22 1017.3 1017.2 0.0
26/11:00am 15.1 7.7 4.8 50 4.8 WNW 33 46 18 25 1017.4 1017.3 0.0
26/10:30am 15.5 9.0 6.5 55 4.4 WNW 30 39 16 21 1017.3 1017.2 0.0
26/10:00am 12.8 6.5 5.5 61 3.4 WNW 28 37 15 20 1017.4 1017.3 0.0
26/09:30am 12.2 7.2 6.5 68 2.7 WNW 22 35 12 19 1017.3 1017.2 0.0
26/09:00am 10.4 6.1 6.9 79 1.7 WNW 19 24 10 13 1017.4 1017.3 0.2
26/08:30am 9.9 6.0 7.0 82 1.4 WNW 17 22 9 12 1016.9 1016.8 0.2
26/08:00am 10.0 5.9 7.8 86 1.1 W 19 22 10 12 1016.6 1016.5 0.2
26/07:30am 9.7 5.1 8.0 89 0.8 W 22 28 12 15 1016.4 1016.3 0.2
26/07:00am 10.2 5.1 7.6 84 1.2 WSW 24 32 13 17 1016.1 1016.0 0.2
26/06:30am 10.6 5.8 7.3 80 1.6 W 22 28 12 15 1015.3 1015.1 0.0
26/06:00am 10.1 7.6 8.2 88 0.9 W 11 15 6 8 1015.1 1014.9 0.0
26/05:30am 9.8 7.2 7.6 86 1.1 W 11 15 6 8 1015.0 1014.8 0.0
26/05:00am 9.9 7.2 7.2 83 1.3 WNW 11 13 6 7 1014.9 1014.7 0.0
26/04:30am 10.4 7.4 7.5 82 1.4 WNW 13 17 7 9 1015.0 1014.8 0.0
26/04:00am 11.3 6.7 8.3 82 1.5 W 22 30 12 16 1014.7 1014.5 0.0
26/03:30am 12.1 5.8 8.9 81 1.6 W 32 43 17 23 1014.7 1014.5 0.0
26/03:16am 12.4 8.7 10.0 85 1.2 W 20 50 11 27 1014.3 1014.1 0.0
26/03:00am 11.1 11.4 10.9 99 0.1 CALM 0 0 0 0 1013.6 1013.4 0.0
26/02:30am 10.9 9.1 10.9 100 0.0 NE 11 13 6 7 1014.0 1013.8 0.0
26/02:00am 12.8 13.2 12.5 98 0.2 WSW 2 6 1 3 1014.2 1014.0 0.0
26/01:30am 12.6 11.6 12.4 99 0.1 W 9 13 5 7 1014.5 1014.3 0.0
26/01:00am 12.1 11.0 12.1 100 0.0 WSW 9 13 5 7 1014.3 1014.1 0.0
26/12:30am 13.1 13.9 12.6 97 0.3 CALM 0 0 0 0 1014.4 1014.2 0.0
26/12:00am 13.5 13.6 12.7 95 0.4 W 4 11 2 6 1014.5 1014.3 0.0
 
Date/Time
EDT
Temp
°C
App
Temp
°C
Dew
Point
Rel
Hum
%
Delta-T
°C
Wind Press
QNH
hPa
Press
MSL
hPa
Rain
since 9 am
mm
Dir
 
Spd
km/h
Gust
km/h
Spd
kts
Gust
kts
25/11:30pm 13.8 13.4 12.5 92 0.7 ENE 6 11 3 6 1014.2 1014.0 0.0
25/11:00pm 13.8 12.9 12.5 92 0.7 ENE 9 11 5 6 1014.2 1014.0 0.0
25/10:30pm 14.0 13.4 12.4 90 0.9 E 7 15 4 8 1014.4 1014.2 0.0
25/10:00pm 14.0 13.0 12.2 89 1.0 ENE 9 13 5 7 1014.6 1014.4 0.0
25/09:30pm 14.2 13.2 12.2 88 1.1 E 9 13 5 7 1014.6 1014.4 0.0
25/09:00pm 14.1 13.1 12.3 89 1.0 ENE 9 15 5 8 1014.5 1014.3 0.0
25/08:30pm 14.5 12.7 12.2 86 1.3 ENE 13 20 7 11 1014.4 1014.2 0.0
25/08:00pm 15.0 12.0 12.1 83 1.6 NE 19 26 10 14 1014.2 1014.0 0.0
25/07:30pm 15.7 12.7 11.9 78 2.1 NE 19 28 10 15 1013.9 1013.7 0.0
25/07:00pm 17.2 14.2 12.1 72 2.8 NE 19 24 10 13 1013.6 1013.4 0.0
25/06:30pm 18.0 15.4 12.0 68 3.3 NE 17 22 9 12 1013.6 1013.4 0.0
25/06:00pm 18.6 15.8 11.2 62 4.0 ENE 17 24 9 13 1013.4 1013.2 0.0
25/05:30pm 19.5 17.1 11.3 59 4.5 NE 15 20 8 11 1013.5 1013.3 0.0
25/05:00pm 18.9 16.8 11.0 60 4.3 NE 13 19 7 10 1013.5 1013.3 0.0
25/04:30pm 18.9 16.8 11.0 60 4.3 ENE 13 19 7 10 1013.7 1013.5 0.0
25/04:00pm 19.1 17.2 10.6 58 4.6 NE 11 17 6 9 1014.3 1014.1 0.0
25/03:30pm 19.8 16.8 10.5 55 5.0 NE 17 24 9 13 1014.2 1014.0 0.0
25/03:00pm 19.5 17.3 10.8 57 4.7 NE 13 20 7 11 1014.6 1014.4 0.0
25/02:30pm 18.2 15.9 10.3 60 4.2 ENE 13 20 7 11 1015.3 1015.1 0.0
25/02:00pm 18.3 15.7 10.7 61 4.1 ENE 15 22 8 12 1016.1 1016.0 0.0
25/01:30pm 18.0 15.5 10.9 63 3.8 ENE 15 22 8 12 1016.5 1016.4 0.0
25/01:00pm 18.1 16.1 10.2 60 4.2 ENE 11 17 6 9 1017.2 1017.1 0.0
25/12:30pm 16.5 14.5 10.1 66 3.4 E 11 17 6 9 1017.6 1017.5 0.0
25/12:00pm 16.7 15.3 10.8 68 3.2 ENE 9 17 5 9 1018.0 1017.9 0.0
25/11:30am 15.5 13.9 10.3 71 2.7 NE 9 15 5 8 1018.3 1018.2 0.0
25/11:00am 15.9 14.4 10.7 71 2.8 NE 9 17 5 9 1018.6 1018.5 0.0
25/10:30am 14.3 13.2 9.9 75 2.3 NNW 6 9 3 5 1019.0 1018.9 0.0
25/10:00am 13.7 13.5 10.5 81 1.7 SW 2 9 1 5 1019.0 1018.9 0.0
25/09:30am 12.9 11.6 11.3 90 0.8 WNW 9 13 5 7 1019.4 1019.3 0.0
25/09:00am 12.4 10.7 11.3 93 0.6 WNW 11 15 6 8 1019.3 1019.2 0.4
25/08:30am 12.0 11.2 11.8 99 0.1 WNW 7 11 4 6 1019.0 1018.9 0.4
25/08:00am 11.6 10.9 11.4 99 0.1 WSW 6 9 3 5 1018.8 1018.7 0.4
25/07:30am 11.5 11.9 11.3 99 0.1 CALM 0 0 0 0 1018.6 1018.5 0.4
25/07:00am 11.5 10.8 11.3 99 0.1 W 6 9 3 5 1018.6 1018.5 0.4
25/06:30am 11.6 10.0 11.4 99 0.1 WNW 11 13 6 7 1018.4 1018.3 0.4
25/06:00am 11.5 9.8 11.3 99 0.1 WNW 11 15 6 8 1017.9 1017.8 0.4
25/05:30am 11.6 10.0 11.4 99 0.1 NW 11 15 6 8 1017.9 1017.8 0.4
25/05:00am 11.7 9.2 11.2 97 0.3 WNW 15 19 8 10 1017.9 1017.8 0.4
25/04:30am 11.6 9.6 11.4 99 0.1 WNW 13 17 7 9 1017.8 1017.7 0.4
25/04:00am 11.5 8.7 11.3 99 0.1 WNW 17 20 9 11 1017.9 1017.8 0.4
25/03:30am 11.4 8.9 11.2 99 0.1 WNW 15 19 8 10 1017.7 1017.6 0.4
25/03:00am 11.5 9.4 11.3 99 0.1 WNW 13 19 7 10 1018.2 1018.1 0.4
25/02:30am 11.6 9.6 11.4 99 0.1 WNW 13 17 7 9 1018.5 1018.4 0.4
25/02:00am 11.5 9.4 11.3 99 0.1 WNW 13 15 7 8 1018.2 1018.1 0.4
25/01:30am 11.6 9.2 11.4 99 0.1 WNW 15 19 8 10 1018.7 1018.6 0.4
25/01:00am 11.7 9.3 11.5 99 0.1 WNW 15 20 8 11 1019.2 1019.1 0.4
25/12:30am 11.8 9.4 11.5 98 0.2 WNW 15 19 8 10 1019.1 1019.0 0.4
25/12:00am 12.1 9.6 11.0 93 0.6 W 15 17 8 9 1019.1 1019.0 0.4
 
Date/Time
EDT
Temp
°C
App
Temp
°C
Dew
Point
Rel
Hum
%
Delta-T
°C
Wind Press
QNH
hPa
Press
MSL
hPa
Rain
since 9 am
mm
Dir
 
Spd
km/h
Gust
km/h
Spd
kts
Gust
kts
24/11:30pm 12.0 9.9 11.1 94 0.5 W 13 19 7 10 1019.5 1019.4 0.4
24/11:00pm 12.0 9.2 11.2 95 0.4 W 17 20 9 11 1019.4 1019.3 0.4
24/10:53pm 12.0 9.2 11.2 95 0.4 W 17 22 9 12 1019.5 1019.4 0.4
24/10:39pm 12.0 9.2 11.4 96 0.3 W 17 20 9 11 1019.7 1019.6 0.4
24/10:30pm 12.0 9.6 11.5 97 0.3 WNW 15 19 8 10 1019.7 1019.6 0.4
24/10:00pm 12.1 9.0 11.6 97 0.3 WSW 19 22 10 12 1019.4 1019.3 0.4
24/09:30pm 12.0 9.3 11.8 99 0.1 WSW 17 24 9 13 1019.3 1019.2 0.4
24/09:00pm 11.8 8.6 11.8 100 0.0 WSW 20 26 11 14 1019.1 1019.0 0.4
24/08:31pm 12.0 8.1 12.0 100 0.0 WSW 24 32 13 17 1018.7 1018.6 0.2
24/08:30pm 11.9 7.9 11.9 100 0.0 WSW 24 32 13 17 1018.7 1018.6 0.2
24/08:10pm 12.2 7.9 12.2 100 0.0 WSW 26 32 14 17 1018.3 1018.2 0.2
24/08:00pm 12.5 8.7 12.5 100 0.0 WSW 24 32 13 17 1018.2 1018.1 0.2
24/07:56pm 12.6 9.6 12.6 100 0.0 WSW 20 32 11 17 1018.1 1018.0 0.2
24/07:45pm 12.9 11.3 12.9 100 0.0 W 13 20 7 11 1017.9 1017.8 0.2
24/07:35pm 12.9 11.3 12.9 100 0.0 W 13 17 7 9 1017.9 1017.8 0.0
24/07:30pm 12.9 11.3 12.7 99 0.1 WNW 13 19 7 10 1017.8 1017.7 0.0
24/07:23pm 13.1 11.4 12.5 96 0.3 WNW 13 17 7 9 1017.6 1017.5 0.0
24/07:00pm 13.1 11.3 12.0 93 0.6 WNW 13 17 7 9 1017.3 1017.2 0.0
24/06:57pm 13.0 11.1 11.9 93 0.6 WNW 13 17 7 9 1017.2 1017.1 0.0
24/06:30pm 12.9 9.8 11.6 92 0.7 WNW 19 22 10 12 1016.9 1016.8 0.0
24/06:00pm 12.9 9.1 11.3 90 0.8 WNW 22 28 12 15 1016.6 1016.5 0.0
24/05:30pm 12.9 9.5 11.3 90 0.8 WNW 20 28 11 15 1016.2 1016.1 0.0
24/05:00pm 13.1 8.4 10.6 85 1.3 WNW 26 37 14 20 1016.1 1016.0 0.0
24/04:30pm 13.9 8.0 10.3 79 1.9 WNW 32 43 17 23 1015.9 1015.8 0.0
24/04:12pm 14.3 8.4 10.3 77 2.1 WNW 32 39 17 21 1015.8 1015.6 0.0

Other Formats:

Comma delimited format used in spreadsheet applications
http://www.bom.gov.au/fwo/IDV60801/IDV60801.94891.axf

JavaScript Object Notation format (JSON) in row-major order
http://www.bom.gov.au/fwo/IDV60801/IDV60801.94891.json